createdAt,value
2022-12-18T00:00:54.933Z,-12.25
2022-12-18T00:03:22.012Z,-12.42
2022-12-18T00:05:53.540Z,-11.78
2022-12-18T00:08:21.184Z,-12.02
2022-12-18T00:10:48.066Z,-12.05
2022-12-18T00:13:14.872Z,-11.90
2022-12-18T00:15:42.218Z,-11.80
2022-12-18T00:18:09.294Z,-11.77
2022-12-18T00:20:41.067Z,-11.93
2022-12-18T00:23:11.438Z,-11.89
2022-12-18T00:25:38.452Z,-12.09
2022-12-18T00:28:06.190Z,-11.97
2022-12-18T00:30:35.733Z,-11.92
2022-12-18T00:33:03.493Z,-11.97
2022-12-18T00:35:32.270Z,-11.83
2022-12-18T00:38:07.315Z,-12.38
2022-12-18T00:40:45.250Z,-12.34
2022-12-18T00:43:16.723Z,-12.33
2022-12-18T00:45:46.252Z,-13.05
2022-12-18T00:48:27.055Z,-12.44
2022-12-18T00:50:54.441Z,-12.52
2022-12-18T00:53:22.445Z,-12.33
2022-12-18T00:55:52.432Z,-12.59
2022-12-18T00:58:19.921Z,-12.40
2022-12-18T01:01:05.245Z,-12.60
2022-12-18T01:03:35.405Z,-12.41
2022-12-18T01:06:15.525Z,-12.32
2022-12-18T01:08:43.414Z,-12.50
2022-12-18T01:11:18.572Z,-12.14
2022-12-18T01:13:49.920Z,-12.31
2022-12-18T01:16:18.241Z,-12.88
2022-12-18T01:18:45.263Z,-13.50
2022-12-18T01:21:16.209Z,-13.47
2022-12-18T01:23:46.599Z,-13.33
2022-12-18T01:26:15.834Z,-13.23
2022-12-18T01:28:44.803Z,-13.02
2022-12-18T01:31:18.503Z,-12.88
2022-12-18T01:33:50.709Z,-12.86
2022-12-18T01:36:20.443Z,-12.52
2022-12-18T01:38:47.918Z,-13.18
2022-12-18T01:41:20.352Z,-13.23
2022-12-18T01:43:54.089Z,-13.47
2022-12-18T01:46:26.412Z,-13.04
2022-12-18T01:49:03.435Z,-12.98
2022-12-18T01:51:35.947Z,-12.78
2022-12-18T01:54:12.926Z,-12.57
2022-12-18T01:56:48.847Z,-11.82
2022-12-18T01:59:16.571Z,-11.72
2022-12-18T02:01:45.709Z,-12.07
2022-12-18T02:04:29.435Z,-12.36
2022-12-18T02:07:12.936Z,-11.83
2022-12-18T02:09:51.696Z,-11.61
2022-12-18T02:12:26.224Z,-11.46
2022-12-18T02:15:31.210Z,-11.20
2022-12-18T02:18:17.490Z,-11.48
2022-12-18T02:21:08.385Z,-11.80
2022-12-18T02:23:59.600Z,-11.15
2022-12-18T02:26:55.058Z,-10.98
2022-12-18T02:35:53.940Z,-10.53
2022-12-18T02:38:48.649Z,-10.34
2022-12-18T02:41:19.122Z,-10.54
2022-12-18T02:43:58.339Z,-10.09
2022-12-18T02:46:54.623Z,-10.97
2022-12-18T02:50:08.308Z,-10.81
2022-12-18T02:52:50.462Z,-10.60
2022-12-18T02:55:33.344Z,-10.89
2022-12-18T02:58:57.670Z,-11.06
2022-12-18T03:01:59.992Z,-10.38
2022-12-18T03:08:14.064Z,-10.55
2022-12-18T03:10:55.842Z,-9.95
2022-12-18T03:13:35.750Z,-9.75
2022-12-18T03:16:09.713Z,-9.05
2022-12-18T03:18:43.488Z,-8.91
2022-12-18T03:21:15.870Z,-8.60
2022-12-18T03:24:40.139Z,-8.51
2022-12-18T03:30:44.856Z,-8.38
2022-12-18T03:33:25.915Z,-8.51
2022-12-18T03:36:00.832Z,-8.42
2022-12-18T03:38:47.662Z,-8.26
2022-12-18T03:41:51.347Z,-8.00
2022-12-18T03:44:46.324Z,-8.08
2022-12-18T03:47:50.390Z,-7.99
2022-12-18T03:50:46.312Z,-7.87
2022-12-18T03:53:46.192Z,-7.83
2022-12-18T03:56:31.857Z,-8.28
2022-12-18T03:59:06.803Z,-7.87
2022-12-18T04:01:51.456Z,-8.00
2022-12-18T04:04:24.929Z,-8.18
2022-12-18T04:07:06.046Z,-7.76
2022-12-18T04:09:37.451Z,-7.99
2022-12-18T04:12:10.637Z,-7.75
2022-12-18T04:15:14.469Z,-8.08
2022-12-18T04:17:50.221Z,-7.85
2022-12-18T04:20:47.792Z,-7.55
2022-12-18T04:23:18.044Z,-7.24
2022-12-18T04:25:49.320Z,-7.20
2022-12-18T04:28:32.105Z,-7.25
2022-12-18T04:31:17.425Z,-7.44
2022-12-18T04:33:47.266Z,-7.89
2022-12-18T04:36:16.230Z,-7.78
2022-12-18T04:38:56.947Z,-6.97
2022-12-18T04:41:27.700Z,-6.92
2022-12-18T04:44:03.861Z,-6.63
2022-12-18T04:46:30.763Z,-6.72
2022-12-18T04:48:57.949Z,-6.74
2022-12-18T04:51:32.426Z,-6.61
2022-12-18T04:54:09.369Z,-6.75
2022-12-18T04:56:45.745Z,-6.95
2022-12-18T04:59:24.189Z,-7.14
2022-12-18T05:01:58.894Z,-6.71
2022-12-18T05:05:27.733Z,-6.88
2022-12-18T05:08:06.226Z,-7.11
2022-12-18T05:10:41.594Z,-7.48
2022-12-18T05:13:20.640Z,-7.79
2022-12-18T05:16:01.137Z,-7.15
2022-12-18T05:18:31.804Z,-7.24
2022-12-18T05:21:04.264Z,-7.46
2022-12-18T05:23:44.438Z,-7.33
2022-12-18T05:26:27.083Z,-7.50
2022-12-18T05:29:04.284Z,-7.41
2022-12-18T05:31:39.699Z,-7.12
2022-12-18T05:34:08.006Z,-7.24
2022-12-18T05:36:36.890Z,-6.86
2022-12-18T05:39:09.890Z,-6.92
2022-12-18T05:42:20.029Z,-6.99
2022-12-18T05:44:48.176Z,-7.33
2022-12-18T05:47:15.135Z,-7.70
2022-12-18T05:50:01.031Z,-8.13
2022-12-18T05:58:23.643Z,-7.98
2022-12-18T06:00:50.863Z,-8.25
2022-12-18T06:04:16.511Z,-7.34
2022-12-18T06:10:07.708Z,-7.74
2022-12-18T06:15:30.316Z,-7.14
2022-12-18T06:18:50.276Z,-6.81
2022-12-18T06:21:18.859Z,-6.96
2022-12-18T06:23:50.921Z,-6.64
2022-12-18T06:30:03.453Z,-7.65
2022-12-18T06:36:11.872Z,-7.71
2022-12-18T06:39:12.379Z,-7.65
2022-12-18T06:44:31.593Z,-7.02
2022-12-18T06:47:20.316Z,-6.70
2022-12-18T06:54:12.703Z,-6.14
2022-12-18T06:57:12.211Z,-6.21
2022-12-18T07:50:44.016Z,-6.61
2022-12-18T07:58:32.479Z,-6.75
2022-12-18T08:11:34.068Z,-7.73
2022-12-18T08:14:12.146Z,-8.01
2022-12-18T08:27:30.088Z,-7.65
2022-12-18T08:37:46.664Z,-7.88
2022-12-18T08:46:11.149Z,-7.87
2022-12-18T08:48:52.573Z,-7.13
2022-12-18T09:04:34.109Z,-7.00
2022-12-18T09:08:10.107Z,-8.00
2022-12-18T09:21:19.577Z,-7.90
2022-12-18T09:24:32.186Z,-7.72
2022-12-18T09:27:19.362Z,-6.63
2022-12-18T09:30:24.543Z,-7.40
2022-12-18T09:33:50.388Z,-7.19
2022-12-18T09:36:34.526Z,-7.66
2022-12-18T09:39:07.814Z,-7.70
2022-12-18T09:42:34.097Z,-7.08
2022-12-18T09:46:14.175Z,-6.95
2022-12-18T09:49:07.256Z,-7.06
2022-12-18T10:11:19.079Z,-6.51
2022-12-18T10:15:59.964Z,-6.56
2022-12-18T10:22:12.934Z,-6.60
2022-12-18T10:25:29.326Z,-6.42
2022-12-18T10:28:03.340Z,-6.19
2022-12-18T10:30:38.136Z,-6.37
2022-12-18T10:33:37.613Z,-6.11
2022-12-18T10:50:46.758Z,-6.85
2022-12-18T10:52:27.521Z,-6.07
2022-12-18T10:57:54.099Z,-6.17
2022-12-18T11:00:41.990Z,-6.06
2022-12-18T11:03:42.040Z,-6.23
2022-12-18T11:10:25.523Z,-6.38
2022-12-18T11:21:22.010Z,-6.61
2022-12-18T11:28:44.003Z,-6.51
2022-12-18T11:39:58.684Z,-6.87
2022-12-18T11:43:24.724Z,-7.10
2022-12-18T11:50:18.716Z,-5.91
2022-12-18T11:53:20.613Z,-5.79
2022-12-18T11:55:59.687Z,-6.14
2022-12-18T11:59:39.879Z,-6.92
2022-12-18T12:06:12.023Z,-6.19
2022-12-18T12:09:45.896Z,-5.92
2022-12-18T12:13:54.281Z,-5.93
2022-12-18T12:25:10.293Z,-6.40
2022-12-18T12:28:50.650Z,-6.86
2022-12-18T12:31:41.688Z,-6.51
2022-12-18T12:44:17.956Z,-5.79
2022-12-18T13:05:29.984Z,-7.53
2022-12-18T13:58:20.357Z,-5.51
2022-12-18T14:22:26.259Z,-6.01
2022-12-18T14:25:49.714Z,-6.59
2022-12-18T14:32:11.927Z,-6.42
2022-12-18T14:39:20.940Z,-6.36
2022-12-18T14:41:50.126Z,-6.49
2022-12-18T14:44:17.821Z,-6.41
2022-12-18T14:46:47.187Z,-6.46
2022-12-18T14:49:36.087Z,-6.44
2022-12-18T14:52:27.307Z,-6.27
2022-12-18T14:54:54.272Z,-6.12
2022-12-18T14:57:32.785Z,-6.13
2022-12-18T15:00:25.122Z,-6.18
2022-12-18T15:02:55.885Z,-6.52
2022-12-18T15:05:28.657Z,-6.37
2022-12-18T15:07:58.885Z,-6.56
2022-12-18T15:10:32.420Z,-6.50
2022-12-18T15:13:03.907Z,-6.61
2022-12-18T15:15:40.691Z,-6.30
2022-12-18T15:18:11.477Z,-6.44
2022-12-18T15:21:00.520Z,-6.60
2022-12-18T15:23:33.186Z,-6.43
2022-12-18T15:26:11.826Z,-6.46
2022-12-18T15:28:50.996Z,-6.45
2022-12-18T15:31:33.151Z,-6.75
2022-12-18T15:34:13.343Z,-7.18
2022-12-18T15:36:40.561Z,-6.80
2022-12-18T15:39:07.315Z,-6.53
2022-12-18T15:42:13.616Z,-7.17
2022-12-18T15:48:34.793Z,-7.06
2022-12-18T15:51:16.455Z,-7.39
2022-12-18T15:53:55.509Z,-6.98
2022-12-18T15:56:42.173Z,-7.15
2022-12-18T16:03:46.030Z,-7.01
2022-12-18T16:06:22.448Z,-7.36
2022-12-18T16:08:50.491Z,-7.08
2022-12-18T16:11:41.666Z,-7.19
2022-12-18T16:14:29.860Z,-7.29
2022-12-18T16:16:59.936Z,-7.37
2022-12-18T16:19:28.012Z,-7.42
2022-12-18T16:21:57.085Z,-7.49
2022-12-18T16:24:30.588Z,-7.53
2022-12-18T16:30:13.134Z,-7.69
2022-12-18T16:32:40.149Z,-7.76
2022-12-18T16:35:07.409Z,-7.85
2022-12-18T16:37:34.464Z,-7.95
2022-12-18T16:40:01.182Z,-7.90
2022-12-18T16:42:28.987Z,-7.98
2022-12-18T16:44:55.772Z,-8.54
2022-12-18T16:47:22.456Z,-9.38
2022-12-18T16:49:53.068Z,-9.35
2022-12-18T16:52:21.961Z,-9.35
2022-12-18T16:54:48.698Z,-9.13
2022-12-18T16:57:20.479Z,-8.97
2022-12-18T16:59:48.869Z,-8.89
2022-12-18T17:02:23.894Z,-8.98
2022-12-18T17:04:57.571Z,-8.93
2022-12-18T17:07:25.133Z,-8.92
2022-12-18T17:09:54.158Z,-9.17
2022-12-18T17:12:21.785Z,-9.21
2022-12-18T17:14:48.647Z,-9.33
2022-12-18T17:17:24.023Z,-9.45
2022-12-18T17:19:52.991Z,-9.97
2022-12-18T17:22:21.474Z,-10.11
2022-12-18T17:24:48.158Z,-9.99
2022-12-18T17:27:20.603Z,-9.88
2022-12-18T17:29:48.826Z,-9.87
2022-12-18T17:32:27.444Z,-9.75
2022-12-18T17:35:21.558Z,-10.50
2022-12-18T17:37:56.938Z,-11.06
2022-12-18T17:40:24.232Z,-10.78
2022-12-18T17:42:54.648Z,-11.08
2022-12-18T17:45:40.207Z,-11.64
2022-12-18T17:48:25.285Z,-11.47
2022-12-18T17:50:53.236Z,-10.95
2022-12-18T17:53:19.996Z,-11.09
2022-12-18T17:55:59.474Z,-11.01
2022-12-18T17:58:26.436Z,-10.97
2022-12-18T18:00:53.388Z,-10.75
2022-12-18T18:03:20.340Z,-10.57
2022-12-18T18:05:47.502Z,-10.44
2022-12-18T18:08:25.350Z,-10.93
2022-12-18T18:14:53.168Z,-11.25
2022-12-18T18:17:19.955Z,-10.93
2022-12-18T18:19:49.697Z,-10.47
2022-12-18T18:22:27.124Z,-10.24
2022-12-18T18:27:48.547Z,-10.33
2022-12-18T18:30:15.595Z,-10.17
2022-12-18T18:32:42.246Z,-10.11
2022-12-18T18:35:37.569Z,-10.05
2022-12-18T18:38:04.652Z,-9.85
2022-12-18T18:40:31.376Z,-9.85
2022-12-18T18:42:58.048Z,-9.85
2022-12-18T18:45:26.186Z,-9.96
2022-12-18T18:47:52.923Z,-10.13
2022-12-18T18:50:22.622Z,-10.14
2022-12-18T18:52:49.941Z,-10.11
2022-12-18T18:55:24.139Z,-10.14
2022-12-18T18:57:52.820Z,-10.26
2022-12-18T19:00:19.761Z,-10.20
2022-12-18T19:02:46.709Z,-10.29
2022-12-18T19:05:22.227Z,-10.55
2022-12-18T19:07:49.390Z,-10.59
2022-12-18T19:10:16.321Z,-10.80
2022-12-18T19:13:01.794Z,-10.56
2022-12-18T19:15:33.428Z,-10.46
2022-12-18T19:18:02.568Z,-10.25
2022-12-18T19:20:31.958Z,-10.09
2022-12-18T19:22:58.710Z,-10.19
2022-12-18T19:25:40.393Z,-10.09
2022-12-18T19:28:22.007Z,-10.07
2022-12-18T19:30:59.086Z,-9.99
2022-12-18T19:33:44.412Z,-9.99
2022-12-18T19:36:21.547Z,-9.94
2022-12-18T19:38:49.901Z,-10.04
2022-12-18T19:41:18.925Z,-10.05
2022-12-18T19:43:51.655Z,-10.20
2022-12-18T19:46:21.931Z,-10.34
2022-12-18T19:48:50.220Z,-10.79
2022-12-18T19:51:27.866Z,-10.80
2022-12-18T19:53:58.839Z,-10.75
2022-12-18T19:56:29.365Z,-10.82
2022-12-18T19:58:57.775Z,-10.72
2022-12-18T20:01:27.208Z,-10.59
2022-12-18T20:03:56.012Z,-10.51
2022-12-18T20:10:32.316Z,-10.56
2022-12-18T20:12:58.986Z,-10.38
2022-12-18T20:15:45.291Z,-10.12
2022-12-18T20:18:17.492Z,-10.03
2022-12-18T20:21:13.597Z,-10.21
2022-12-18T20:23:41.017Z,-10.47
2022-12-18T20:26:08.594Z,-10.16
2022-12-18T20:28:36.070Z,-10.39
2022-12-18T20:31:46.835Z,-10.60
2022-12-18T20:35:22.162Z,-10.71
2022-12-18T20:37:50.877Z,-10.67
2022-12-18T20:41:47.830Z,-10.87
2022-12-18T20:44:37.171Z,-11.31
2022-12-18T20:47:07.711Z,-11.94
2022-12-18T20:49:39.584Z,-11.84
2022-12-18T20:52:11.103Z,-11.44
2022-12-18T20:55:08.349Z,-10.61
2022-12-18T20:58:28.801Z,-10.42
2022-12-18T21:01:19.133Z,-10.48
2022-12-18T21:03:52.681Z,-10.66
2022-12-18T21:06:25.948Z,-11.27
2022-12-18T21:08:56.064Z,-11.29
2022-12-18T21:11:50.246Z,-11.40
2022-12-18T21:14:28.259Z,-10.64
2022-12-18T21:16:59.161Z,-10.33
2022-12-18T21:19:31.695Z,-10.16
2022-12-18T21:21:59.005Z,-9.97
2022-12-18T21:24:26.468Z,-9.82
2022-12-18T21:26:56.225Z,-10.35
2022-12-18T21:29:25.466Z,-10.52
2022-12-18T21:31:56.137Z,-10.61
2022-12-18T21:34:29.400Z,-10.71
2022-12-18T21:36:58.230Z,-10.65
2022-12-18T21:39:26.339Z,-10.52
2022-12-18T21:42:19.206Z,-10.33
2022-12-18T21:44:49.057Z,-10.34
2022-12-18T21:47:22.668Z,-10.35
2022-12-18T21:49:53.679Z,-10.08
2022-12-18T21:52:25.689Z,-10.30
2022-12-18T21:55:09.570Z,-9.66
2022-12-18T21:57:41.817Z,-9.75
2022-12-18T22:00:20.982Z,-9.62
2022-12-18T22:03:13.347Z,-9.71
2022-12-18T22:05:35.569Z,-9.17
2022-12-18T22:08:08.857Z,-9.16
2022-12-18T22:10:39.968Z,-9.07
2022-12-18T22:13:07.620Z,-8.91
2022-12-18T22:15:34.680Z,-8.80
2022-12-18T22:18:04.827Z,-9.00
2022-12-18T22:20:31.721Z,-9.07
2022-12-18T22:23:02.604Z,-9.03
2022-12-18T22:25:35.234Z,-8.69
2022-12-18T22:28:24.521Z,-9.26
2022-12-18T22:30:52.696Z,-9.35
2022-12-18T22:33:26.815Z,-9.48
2022-12-18T22:35:53.637Z,-9.44
2022-12-18T22:38:20.386Z,-9.43
2022-12-18T22:40:47.179Z,-9.28
2022-12-18T22:43:16.670Z,-8.98
2022-12-18T22:45:47.377Z,-9.40
2022-12-18T22:48:15.279Z,-9.19
2022-12-18T22:50:53.451Z,-9.27
2022-12-18T22:53:26.151Z,-8.90
2022-12-18T22:56:00.628Z,-8.80
2022-12-18T22:58:27.544Z,-8.91
2022-12-18T23:00:54.604Z,-8.65
2022-12-18T23:03:21.380Z,-8.61
2022-12-18T23:05:48.204Z,-8.54
2022-12-18T23:08:26.851Z,-8.49
2022-12-18T23:10:55.989Z,-8.49
2022-12-18T23:13:23.364Z,-8.64
2022-12-18T23:15:50.228Z,-8.50
2022-12-18T23:18:25.939Z,-8.48
2022-12-18T23:20:52.919Z,-8.55
2022-12-18T23:23:19.959Z,-8.21
2022-12-18T23:25:46.670Z,-8.32
2022-12-18T23:28:13.844Z,-8.35
2022-12-18T23:30:40.864Z,-8.30
2022-12-18T23:33:08.075Z,-8.48
2022-12-18T23:35:38.894Z,-8.59
2022-12-18T23:38:06.441Z,-8.50
2022-12-18T23:40:33.392Z,-8.69
2022-12-18T23:43:00.533Z,-8.24
2022-12-18T23:45:27.606Z,-8.35
2022-12-18T23:47:54.402Z,-8.55
2022-12-18T23:50:23.789Z,-8.31
2022-12-18T23:52:57.280Z,-8.26
2022-12-18T23:55:30.705Z,-8.05
2022-12-18T23:57:57.516Z,-8.07
